Terminal Aerodrome Forecast
Issued by NWS Wilmington, OH

Current Version | Previous Version | Graphics & Text | Print | Product List | Glossary On
Versions: 1 2 3 4 5 6 7 8 9 10 11 12 13 14 15 16 17 18 19
294
FTUS41 KILN 221734
TAFILN
TAF
KILN 221734Z 2218/2318 19009KT 5SM BR OVC006
     FM221900 21007KT 6SM BR OVC009
     FM222000 20006KT P6SM OVC012
     FM230200 19005KT P6SM BKN025
     FM230900 20005KT 3SM BR VCSH OVC015
     FM231200 21005KT 2SM BR OVC007
     FM231600 22006KT P6SM OVC015=

USA.gov is the U.S. government's official web portal to all federal, state and local government web resources and services.